Time;durP1;ratioP1;P1;durP2;ratioP2;P2;SDS_P1;SDS_P2;PMS_P1;PMS_P2;Temp;Humidity;BMP_temperature;BMP_pressure;BME280_temperature;BME280_humidity;BME280_pressure;Samples;Min_cycle;Max_cycle;Signal;HPM_P1;HPM_P2
2021/01/04 00:01:32;;;;;;;16.13;7.60;;;7.30;62.80;;;;;;6315067;28;20060;-82
2021/01/04 00:05:03;;;;;;;22.23;7.82;;;7.20;62.80;;;;;;6308292;28;20115;-82
2021/01/04 00:08:42;;;;;;;18.65;8.77;;;7.20;62.90;;;;;;6323067;28;20036;-81
2021/01/04 00:12:16;;;;;;;19.02;8.25;;;7.20;63.00;;;;;;6324499;28;20036;-81
2021/01/04 00:15:36;;;;;;;14.55;7.95;;;7.20;63.00;;;;;;6307445;28;20043;-81
2021/01/04 00:19:13;;;;;;;19.95;8.80;;;7.20;63.10;;;;;;6324268;28;20035;-81
2021/01/04 00:22:29;;;;;;;19.17;7.95;;;7.20;63.20;;;;;;6223495;28;20117;-81
2021/01/04 00:25:45;;;;;;;18.25;8.50;;;7.20;63.10;;;;;;6199336;28;20042;-80
2021/01/04 00:28:46;;;;;;;21.08;9.68;;;7.10;63.20;;;;;;6209804;28;20054;-81
2021/01/04 00:31:54;;;;;;;19.30;9.90;;;7.20;63.30;;;;;;6207938;28;20110;-81
2021/01/04 00:34:58;;;;;;;23.85;9.23;;;7.10;63.30;;;;;;6192669;28;20038;-80
2021/01/04 00:38:22;;;;;;;17.92;8.75;;;7.10;63.50;;;;;;6199558;28;20124;-81
2021/01/04 00:41:33;;;;;;;20.27;9.00;;;7.10;63.60;;;;;;6206703;28;20034;-81
2021/01/04 00:44:50;;;;;;;18.38;8.52;;;7.10;63.60;;;;;;6207451;28;20461;-81
2021/01/04 00:48:23;;;;;;;19.88;9.02;;;7.10;63.70;;;;;;6207618;28;20052;-80
2021/01/04 00:51:48;;;;;;;24.48;10.50;;;7.00;63.60;;;;;;6149159;29;20098;-80
2021/01/04 00:55:11;;;;;;;20.73;8.90;;;7.10;63.70;;;;;;6156925;29;20057;-82
2021/01/04 00:58:20;;;;;;;21.17;9.43;;;7.00;63.80;;;;;;6191357;28;20169;-80
2021/01/04 01:01:37;;;;;;;24.27;10.48;;;7.00;64.00;;;;;;6229121;28;20053;-82
2021/01/04 01:05:14;;;;;;;18.08;8.10;;;7.00;64.20;;;;;;6197709;28;20048;-81
2021/01/04 01:08:18;;;;;;;22.45;9.32;;;7.00;64.30;;;;;;6205830;28;20071;-79
2021/01/04 01:11:28;;;;;;;21.02;8.93;;;7.00;64.40;;;;;;6189854;28;20144;-79
2021/01/04 01:14:52;;;;;;;17.27;8.98;;;6.90;64.50;;;;;;6214183;28;20118;-80
2021/01/04 01:18:07;;;;;;;24.50;9.90;;;6.90;64.60;;;;;;6198333;28;20038;-80
2021/01/04 01:21:10;;;;;;;22.00;10.35;;;7.00;64.80;;;;;;6181896;28;20034;-81
2021/01/04 01:24:12;;;;;;;20.83;10.77;;;7.00;64.70;;;;;;6181157;28;20128;-80
2021/01/04 01:27:42;;;;;;;26.85;10.23;;;7.00;64.80;;;;;;6196207;28;20033;-81
2021/01/04 01:30:58;;;;;;;28.90;10.70;;;7.00;64.80;;;;;;6182178;28;20037;-80
2021/01/04 01:34:31;;;;;;;25.27;11.18;;;7.00;64.90;;;;;;6197523;28;20098;-80
2021/01/04 01:37:44;;;;;;;22.05;11.02;;;7.00;64.90;;;;;;6196966;28;20042;-80
2021/01/04 01:41:13;;;;;;;21.13;10.38;;;7.00;64.70;;;;;;6198219;28;20034;-81
2021/01/04 01:44:32;;;;;;;29.85;12.27;;;7.00;64.80;;;;;;6196954;28;20046;-80
2021/01/04 01:48:02;;;;;;;19.10;9.30;;;7.00;64.80;;;;;;6197798;28;20046;-80
2021/01/04 01:51:06;;;;;;;;;;;7.00;64.90;;;;;;6171579;28;20046;-80
2021/01/04 01:54:38;;;;;;;23.40;9.98;;;7.00;64.90;;;;;;6208862;28;20287;-80
2021/01/04 01:58:16;;;;;;;22.42;10.93;;;7.00;64.70;;;;;;6298938;28;20058;-82
2021/01/04 02:01:36;;;;;;;22.30;10.40;;;7.00;64.70;;;;;;6349776;28;20047;-80
2021/01/04 02:05:03;;;;;;;30.15;11.70;;;7.00;64.80;;;;;;6357869;28;20053;-80
2021/01/04 02:08:11;;;;;;;20.27;10.00;;;7.00;64.90;;;;;;6359884;28;20019;-80
2021/01/04 02:11:30;;;;;;;22.58;9.57;;;7.00;65.00;;;;;;6380451;28;20087;-80
2021/01/04 02:14:39;;;;;;;27.45;10.45;;;7.00;65.00;;;;;;6346279;28;20051;-80
2021/01/04 02:18:01;;;;;;;23.00;10.57;;;7.00;64.90;;;;;;6378348;28;20035;-80
2021/01/04 02:21:23;;;;;;;18.42;9.05;;;7.00;64.80;;;;;;6346056;28;20415;-80
2021/01/04 02:24:26;;;;;;;26.95;11.68;;;7.10;64.90;;;;;;6335947;28;20343;-80
2021/01/04 02:27:33;;;;;;;22.02;9.40;;;7.10;64.70;;;;;;6307148;28;20040;-80
2021/01/04 02:30:34;;;;;;;21.80;9.82;;;7.10;64.70;;;;;;6303415;28;20036;-80
2021/01/04 02:33:35;;;;;;;24.38;9.57;;;7.10;64.60;;;;;;6301744;28;20063;-80
2021/01/04 02:36:41;;;;;;;20.83;9.50;;;7.10;64.50;;;;;;6302411;28;20032;-80
2021/01/04 02:40:03;;;;;;;24.50;10.75;;;7.10;64.50;;;;;;6298386;28;20040;-80
2021/01/04 02:43:04;;;;;;;23.50;10.57;;;7.00;64.50;;;;;;6292907;28;20036;-80
2021/01/04 02:46:10;;;;;;;25.70;10.55;;;7.10;64.60;;;;;;6317779;28;20043;-79
2021/01/04 02:49:36;;;;;;;23.23;9.27;;;7.10;64.50;;;;;;6294022;28;20032;-80
2021/01/04 02:53:05;;;;;;;21.38;9.48;;;7.00;64.30;;;;;;6324789;28;20371;-80
2021/01/04 02:56:28;;;;;;;24.25;9.80;;;7.10;64.40;;;;;;6322341;28;20032;-80
2021/01/04 02:59:44;;;;;;;22.15;9.50;;;7.00;64.50;;;;;;6313085;28;20044;-80
2021/01/04 03:02:49;;;;;;;20.90;10.00;;;7.00;64.60;;;;;;6315309;28;20033;-80
2021/01/04 03:05:50;;;;;;;23.33;10.20;;;7.00;64.50;;;;;;6303606;28;20098;-79
2021/01/04 03:08:52;;;;;;;23.52;10.68;;;7.00;64.60;;;;;;6301109;28;20052;-81
2021/01/04 03:11:54;;;;;;;23.52;10.23;;;7.00;64.60;;;;;;6301470;28;20068;-80
2021/01/04 03:15:16;;;;;;;24.17;9.80;;;7.00;64.60;;;;;;6283490;28;20040;-79
2021/01/04 03:18:44;;;;;;;23.70;9.60;;;7.00;64.80;;;;;;6283777;28;20024;-80
2021/01/04 03:22:02;;;;;;;26.50;9.95;;;7.00;64.80;;;;;;6315737;28;20037;-80
2021/01/04 03:25:17;;;;;;;20.90;9.82;;;7.00;64.70;;;;;;6299821;28;20059;-79
2021/01/04 03:28:31;;;;;;;34.08;11.00;;;7.00;64.60;;;;;;6306960;28;20047;-79
2021/01/04 03:31:34;;;;;;;19.15;10.57;;;7.00;64.60;;;;;;6307611;28;20067;-79
2021/01/04 03:34:34;;;;;;;24.77;10.23;;;6.90;64.60;;;;;;6327730;28;20095;-79
2021/01/04 03:37:35;;;;;;;22.58;8.98;;;6.90;64.60;;;;;;6332011;28;20061;-79
2021/01/04 03:40:36;;;;;;;19.42;9.00;;;6.90;64.70;;;;;;6330953;28;20100;-79
2021/01/04 03:43:37;;;;;;;21.73;9.52;;;6.90;64.70;;;;;;6314369;28;20367;-81
2021/01/04 03:46:45;;;;;;;21.25;9.18;;;7.00;64.70;;;;;;6309171;28;20043;-80
2021/01/04 03:49:46;;;;;;;20.50;8.90;;;6.90;64.50;;;;;;6326552;28;20497;-80
2021/01/04 03:52:47;;;;;;;17.70;8.75;;;6.90;64.30;;;;;;6326244;28;20048;-80
2021/01/04 03:55:48;;;;;;;20.83;9.63;;;7.00;64.50;;;;;;6326748;28;20362;-80
2021/01/04 03:58:50;;;;;;;21.00;8.82;;;6.90;64.30;;;;;;6321965;28;20112;-80
2021/01/04 04:01:53;;;;;;;27.23;10.40;;;6.90;64.40;;;;;;6309408;28;20036;-82
2021/01/04 04:04:55;;;;;;;22.58;9.70;;;7.00;64.50;;;;;;6308242;28;20138;-82
2021/01/04 04:07:56;;;;;;;23.55;10.15;;;7.00;64.30;;;;;;6325612;28;20149;-79
2021/01/04 04:10:58;;;;;;;22.38;8.95;;;7.00;64.20;;;;;;6327145;28;20028;-80
2021/01/04 04:14:00;;;;;;;18.48;9.60;;;7.10;64.20;;;;;;6325765;28;20089;-80
2021/01/04 04:17:01;;;;;;;18.88;9.68;;;7.10;64.20;;;;;;6325766;28;20036;-81
2021/01/04 04:20:03;;;;;;;20.33;9.60;;;7.10;64.10;;;;;;6324680;28;20499;-80
2021/01/04 04:23:05;;;;;;;24.70;9.80;;;7.10;64.00;;;;;;6327227;28;20101;-80
2021/01/04 04:26:14;;;;;;;14.43;8.68;;;7.10;63.80;;;;;;6333045;28;20043;-80
2021/01/04 04:29:15;;;;;;;16.35;8.20;;;7.10;63.80;;;;;;6333185;28;20040;-80
2021/01/04 04:32:18;;;;;;;18.17;8.25;;;7.10;63.70;;;;;;6325721;28;20044;-81
2021/01/04 04:35:20;;;;;;;18.17;8.30;;;7.20;64.10;;;;;;6307736;28;20066;-80
2021/01/04 04:38:21;;;;;;;17.17;7.32;;;7.20;63.60;;;;;;6325763;28;20050;-80
2021/01/04 04:41:35;;;;;;;18.95;8.48;;;7.20;63.50;;;;;;6326806;28;20036;-80
2021/01/04 04:44:50;;;;;;;22.55;8.45;;;7.30;63.40;;;;;;6291499;28;20039;-80
2021/01/04 04:48:07;;;;;;;20.25;8.63;;;7.30;63.30;;;;;;6281990;28;20486;-80
2021/01/04 04:51:30;;;;;;;23.05;9.57;;;7.30;63.20;;;;;;6315347;28;20047;-80
2021/01/04 04:54:35;;;;;;;15.75;7.13;;;7.30;63.10;;;;;;6314981;28;20040;-81
2021/01/04 04:58:02;;;;;;;16.10;7.63;;;7.30;63.00;;;;;;6312833;28;20036;-80
2021/01/04 05:01:24;;;;;;;17.75;9.00;;;7.30;62.80;;;;;;6214226;28;20124;-80
2021/01/04 05:04:55;;;;;;;23.10;8.77;;;7.20;62.80;;;;;;6215957;28;20056;-81
2021/01/04 05:08:08;;;;;;;18.38;8.43;;;7.20;63.00;;;;;;6230977;28;20457;-80
2021/01/04 05:11:11;;;;;;;21.33;8.32;;;7.20;63.10;;;;;;6249991;28;20045;-81
2021/01/04 05:14:27;;;;;;;18.88;8.30;;;7.10;63.10;;;;;;6231051;28;20038;-81
2021/01/04 05:17:56;;;;;;;18.83;8.13;;;7.10;63.40;;;;;;6231149;28;20073;-80
2021/01/04 05:21:02;;;;;;;17.75;8.48;;;7.20;63.50;;;;;;6248266;28;20057;-80
2021/01/04 05:24:22;;;;;;;19.85;8.73;;;7.20;63.50;;;;;;6231152;28;20034;-80
2021/01/04 05:27:38;;;;;;;22.05;9.82;;;7.10;63.30;;;;;;6219270;28;20438;-80
2021/01/04 05:30:57;;;;;;;22.48;8.77;;;7.20;63.30;;;;;;6230607;28;20037;-80
2021/01/04 05:34:38;;;;;;;18.10;7.80;;;7.10;63.30;;;;;;6229208;28;20061;-80
2021/01/04 05:37:45;;;;;;;13.48;4.20;;;7.10;63.60;;;;;;6168286;28;20044;-80
2021/01/04 05:41:12;;;;;;;6.82;3.55;;;7.10;63.10;;;;;;6206303;28;20457;-81
2021/01/04 05:44:35;;;;;;;5.10;2.17;;;7.10;62.70;;;;;;6222892;28;20041;-80
2021/01/04 05:47:57;;;;;;;5.00;2.90;;;7.10;62.00;;;;;;6192790;28;20030;-81
2021/01/04 05:51:12;;;;;;;5.53;3.13;;;7.00;61.20;;;;;;6218462;28;20058;-81
2021/01/04 05:54:17;;;;;;;4.20;2.30;;;7.00;60.10;;;;;;6243796;28;20038;-80
2021/01/04 05:57:19;;;;;;;4.28;2.35;;;7.00;59.80;;;;;;6231475;28;20451;-81
2021/01/04 06:00:33;;;;;;;7.47;2.67;;;7.00;59.70;;;;;;6234316;28;20042;-79
2021/01/04 06:03:35;;;;;;;6.10;2.90;;;7.00;60.40;;;;;;6222079;28;20124;-81
2021/01/04 06:06:39;;;;;;;6.57;3.05;;;7.00;59.70;;;;;;6199392;28;20037;-82
2021/01/04 06:09:40;;;;;;;5.25;2.72;;;7.00;59.80;;;;;;6333747;28;20020;-82
2021/01/04 06:12:44;;;;;;;5.47;3.08;;;7.10;59.50;;;;;;6324057;28;20040;-80
2021/01/04 06:15:46;;;;;;;9.48;3.10;;;7.10;59.30;;;;;;6330964;28;20082;-80
2021/01/04 06:18:51;;;;;;;6.13;2.95;;;7.00;59.60;;;;;;6328117;28;20032;-80
2021/01/04 06:21:57;;;;;;;4.75;2.80;;;7.00;58.80;;;;;;6311396;28;20073;-82
2021/01/04 06:25:05;;;;;;;8.63;3.13;;;7.00;58.80;;;;;;6327390;28;20589;-82
2021/01/04 06:28:07;;;;;;;7.90;3.40;;;7.00;58.80;;;;;;6324300;28;20381;-81
2021/01/04 06:31:09;;;;;;;10.68;5.03;;;7.00;58.80;;;;;;6322368;28;20482;-82
2021/01/04 06:34:22;;;;;;;14.98;7.07;;;7.10;58.90;;;;;;6324591;28;20385;-81
2021/01/04 06:37:27;;;;;;;11.10;5.65;;;7.00;59.30;;;;;;6286592;28;20345;-81
2021/01/04 06:40:38;;;;;;;12.98;6.22;;;7.00;59.70;;;;;;6302398;28;20029;-81
2021/01/04 06:43:39;;;;;;;12.40;5.45;;;7.00;60.10;;;;;;6298474;28;20044;-82
2021/01/04 06:47:19;;;;;;;15.93;6.55;;;7.00;60.30;;;;;;6280837;28;20028;-81
2021/01/04 06:50:42;;;;;;;15.05;6.07;;;7.10;60.30;;;;;;6283067;28;20025;-83
2021/01/04 06:54:29;;;;;;;16.83;7.85;;;7.10;60.30;;;;;;6280846;28;20060;-82
2021/01/04 06:57:33;;;;;;;14.85;5.88;;;7.10;60.40;;;;;;6299506;28;20060;-80
2021/01/04 07:01:26;;;;;;;12.40;5.47;;;7.10;60.50;;;;;;6316675;28;20043;-82
2021/01/04 07:05:21;;;;;;;17.23;6.97;;;7.10;60.50;;;;;;6181700;28;20412;-81
2021/01/04 07:08:51;;;;;;;19.10;8.50;;;7.00;60.40;;;;;;6142963;29;20459;-80
2021/01/04 07:12:01;;;;;;;19.25;8.00;;;7.10;60.80;;;;;;6117941;29;20340;-85
2021/01/04 07:15:03;;;;;;;20.15;8.90;;;7.00;61.30;;;;;;6111039;29;20056;-84
2021/01/04 07:18:04;;;;;;;18.00;7.85;;;7.10;61.60;;;;;;6118950;29;20036;-85
2021/01/04 07:21:41;;;;;;;23.25;8.65;;;7.10;61.70;;;;;;6122542;29;20040;-83
2021/01/04 07:25:16;;;;;;;21.23;8.85;;;7.10;61.90;;;;;;5999170;29;20444;-85
2021/01/04 07:28:40;;;;;;;17.08;8.20;;;7.10;62.10;;;;;;6018248;29;20038;-85
2021/01/04 07:32:04;;;;;;;16.13;7.10;;;7.10;62.30;;;;;;6003133;29;20046;-84
2021/01/04 07:35:17;;;;;;;18.85;7.95;;;7.10;62.40;;;;;;6003677;29;20062;-84
2021/01/04 07:38:45;;;;;;;21.05;9.35;;;7.10;62.40;;;;;;5983156;29;20459;-85
2021/01/04 07:42:18;;;;;;;22.77;9.10;;;7.10;62.40;;;;;;6029766;29;20123;-86
2021/01/04 07:45:56;;;;;;;24.98;7.35;;;7.20;62.40;;;;;;6092537;29;20040;-84
2021/01/04 07:49:17;;;;;;;15.93;7.25;;;7.20;62.20;;;;;;6191134;28;20034;-84
2021/01/04 07:52:52;;;;;;;12.45;6.35;;;7.20;62.00;;;;;;6185721;28;20054;-84
2021/01/04 07:56:13;;;;;;;26.92;5.47;;;7.10;61.50;;;;;;6200310;28;20123;-83
2021/01/04 07:59:24;;;;;;;10.85;5.10;;;7.30;61.20;;;;;;6176846;28;20044;-86
2021/01/04 08:03:13;;;;;;;13.75;5.95;;;7.30;60.40;;;;;;6289340;28;20046;-84
2021/01/04 08:06:38;;;;;;;9.35;4.70;;;7.30;59.80;;;;;;6292354;28;20028;-85
2021/01/04 08:09:39;;;;;;;10.30;5.70;;;7.30;59.70;;;;;;6310978;28;20455;-85
2021/01/04 08:13:16;;;;;;;12.35;5.93;;;7.30;59.50;;;;;;6273628;28;20086;-84
2021/01/04 08:16:23;;;;;;;18.17;7.55;;;7.30;59.60;;;;;;6309257;28;20032;-85
2021/01/04 08:19:26;;;;;;;11.52;5.43;;;7.40;59.70;;;;;;6309088;28;20066;-85
2021/01/04 08:23:01;;;;;;;8.07;4.57;;;7.40;59.60;;;;;;6294296;28;20047;-83
2021/01/04 08:26:23;;;;;;;10.05;3.83;;;7.40;59.40;;;;;;6314668;28;20047;-84
2021/01/04 08:29:29;;;;;;;10.15;4.20;;;7.40;59.30;;;;;;6188783;28;20088;-84
2021/01/04 08:32:52;;;;;;;8.60;3.83;;;7.50;59.00;;;;;;6208723;28;20052;-84
2021/01/04 08:35:54;;;;;;;10.75;5.30;;;7.50;58.80;;;;;;6191786;28;20464;-84
2021/01/04 08:39:24;;;;;;;11.40;6.35;;;7.60;58.40;;;;;;6200163;28;20096;-83
2021/01/04 08:42:30;;;;;;;19.92;7.28;;;7.60;58.20;;;;;;6227043;28;20034;-83
2021/01/04 08:46:11;;;;;;;19.25;8.35;;;7.70;58.40;;;;;;6213410;28;20038;-85
2021/01/04 08:49:27;;;;;;;18.10;8.27;;;7.60;58.60;;;;;;6076742;29;20044;-84
2021/01/04 08:52:43;;;;;;;19.52;9.20;;;7.70;58.70;;;;;;6071580;29;20040;-84
2021/01/04 08:55:45;;;;;;;21.83;8.55;;;7.60;58.90;;;;;;6084008;29;20095;-83
2021/01/04 08:58:46;;;;;;;19.92;7.72;;;7.70;59.10;;;;;;6068269;29;20068;-86
2021/01/04 09:01:54;;;;;;;20.23;9.40;;;7.70;59.10;;;;;;6099249;29;20064;-84
2021/01/04 09:05:03;;;;;;;16.58;8.55;;;7.60;59.10;;;;;;6103305;29;20040;-85
2021/01/04 09:08:06;;;;;;;18.55;8.60;;;7.70;59.30;;;;;;6136187;29;20082;-84
2021/01/04 09:11:08;;;;;;;13.73;6.65;;;7.70;59.30;;;;;;6138741;29;20038;-84
2021/01/04 09:14:39;;;;;;;18.33;7.75;;;7.70;59.30;;;;;;6154630;29;20027;-84
2021/01/04 09:17:59;;;;;;;17.45;7.57;;;7.70;59.30;;;;;;6153870;29;20043;-84
2021/01/04 09:21:21;;;;;;;19.00;8.07;;;7.70;59.00;;;;;;6156171;28;20432;-84
2021/01/04 09:24:22;;;;;;;15.75;7.38;;;7.70;59.10;;;;;;6212797;28;20454;-85
2021/01/04 09:27:29;;;;;;;17.42;7.57;;;7.80;59.00;;;;;;6284054;28;20036;-84
2021/01/04 09:30:30;;;;;;;14.02;6.43;;;7.90;58.90;;;;;;6317383;28;20364;-84
2021/01/04 09:33:41;;;;;;;17.55;7.68;;;7.90;58.70;;;;;;6318204;28;20096;-84
2021/01/04 09:36:42;;;;;;;15.35;7.50;;;7.90;58.70;;;;;;6358975;28;20118;-84
2021/01/04 09:39:43;;;;;;;14.32;6.97;;;7.90;58.80;;;;;;6324266;28;20156;-84
2021/01/04 09:42:45;;;;;;;18.05;7.10;;;7.90;58.40;;;;;;6333861;28;20035;-82
2021/01/04 09:45:46;;;;;;;17.40;7.38;;;7.90;58.20;;;;;;6352335;28;20039;-84
2021/01/04 09:48:59;;;;;;;14.77;6.57;;;7.90;58.40;;;;;;6322643;28;20126;-84
2021/01/04 09:52:13;;;;;;;13.82;6.57;;;7.90;58.50;;;;;;6320688;28;20035;-86
2021/01/04 09:55:14;;;;;;;15.05;6.75;;;7.90;58.50;;;;;;6350625;28;20058;-83
2021/01/04 09:58:19;;;;;;;14.65;6.78;;;7.90;58.20;;;;;;6325301;28;20032;-83
2021/01/04 10:01:21;;;;;;;19.98;8.20;;;7.90;58.20;;;;;;6322166;28;20104;-84
2021/01/04 10:04:29;;;;;;;18.38;8.70;;;7.90;57.90;;;;;;6288857;28;20058;-83
2021/01/04 10:07:33;;;;;;;20.00;8.90;;;7.90;57.90;;;;;;6320616;28;20038;-84
2021/01/04 10:10:38;;;;;;;15.65;6.32;;;8.00;57.90;;;;;;6313135;28;20058;-84
2021/01/04 10:13:40;;;;;;;17.73;7.82;;;7.90;57.80;;;;;;6299835;28;20047;-85
2021/01/04 10:16:44;;;;;;;31.85;11.48;;;8.00;57.90;;;;;;6292754;28;20043;-84
2021/01/04 10:19:54;;;;;;;21.08;10.60;;;8.00;57.80;;;;;;6309425;28;20113;-84
2021/01/04 10:22:58;;;;;;;17.02;8.23;;;8.10;57.60;;;;;;6291564;28;20047;-84
2021/01/04 10:26:01;;;;;;;22.48;7.38;;;8.10;57.60;;;;;;6291096;28;20040;-84
2021/01/04 10:29:08;;;;;;;21.13;9.18;;;8.10;57.70;;;;;;6310319;28;20119;-84
2021/01/04 10:32:18;;;;;;;;;;;8.10;57.80;;;;;;6331461;28;20064;-85
2021/01/04 10:35:23;;;;;;;20.20;8.77;;;8.10;57.60;;;;;;6319663;28;19940;-85
2021/01/04 10:38:24;;;;;;;14.80;7.93;;;8.10;57.60;;;;;;6321171;28;20118;-85
2021/01/04 10:41:30;;;;;;;17.48;7.68;;;8.10;57.60;;;;;;6345053;28;20016;-83
2021/01/04 10:44:33;;;;;;;24.80;11.38;;;8.10;57.60;;;;;;6335601;28;20046;-84
2021/01/04 10:47:52;;;;;;;24.77;11.20;;;8.10;57.70;;;;;;6317184;28;20039;-84
2021/01/04 10:51:00;;;;;;;25.63;8.75;;;8.20;57.60;;;;;;6319167;28;20047;-85
2021/01/04 10:54:16;;;;;;;30.88;11.25;;;8.20;57.50;;;;;;6350539;28;20052;-84
2021/01/04 10:57:41;;;;;;;36.03;14.52;;;8.30;57.50;;;;;;6313370;28;20028;-83
2021/01/04 11:00:57;;;;;;;14.82;7.88;;;8.30;57.20;;;;;;6288515;28;20458;-85
2021/01/04 11:04:14;;;;;;;17.00;8.35;;;8.30;57.10;;;;;;6287483;28;20041;-83
2021/01/04 11:07:20;;;;;;;17.58;8.02;;;8.40;57.00;;;;;;6286449;28;20106;-85
2021/01/04 11:10:26;;;;;;;14.30;7.57;;;8.40;56.90;;;;;;6286384;28;20038;-85
2021/01/04 11:13:34;;;;;;;14.85;8.13;;;8.50;56.90;;;;;;6299290;28;20446;-85
2021/01/04 11:16:43;;;;;;;;;;;8.50;56.80;;;;;;6304851;28;20024;-84
2021/01/04 11:19:45;;;;;;;12.70;5.55;;;8.60;56.50;;;;;;6273123;28;20032;-85
2021/01/04 11:22:46;;;;;;;16.40;7.53;;;8.60;56.00;;;;;;6310366;28;20036;-84
2021/01/04 11:25:47;;;;;;;19.75;8.10;;;8.60;56.00;;;;;;6309887;28;20044;-84
2021/01/04 11:28:48;;;;;;;19.48;8.15;;;8.60;55.80;;;;;;6271112;28;20124;-85
2021/01/04 11:31:49;;;;;;;21.02;6.82;;;8.60;55.90;;;;;;6274390;28;20364;-85
2021/01/04 11:35:03;;;;;;;19.20;8.10;;;8.60;55.90;;;;;;6267597;28;20029;-86
2021/01/04 11:38:39;;;;;;;23.08;9.60;;;8.70;56.00;;;;;;6266997;28;20083;-85
2021/01/04 11:41:53;;;;;;;13.23;6.32;;;8.70;55.50;;;;;;6272409;28;20036;-86
2021/01/04 11:45:09;;;;;;;20.38;8.20;;;8.80;55.40;;;;;;6271488;28;20456;-86
2021/01/04 11:48:10;;;;;;;;;;;8.80;55.40;;;;;;6270921;28;20101;-85
2021/01/04 11:51:31;;;;;;;15.95;6.97;;;8.90;55.30;;;;;;6260121;28;20262;-83
2021/01/04 11:54:49;;;;;;;18.58;7.43;;;9.00;55.10;;;;;;6265820;28;20040;-86
2021/01/04 11:57:52;;;;;;;15.00;7.43;;;9.00;54.80;;;;;;6257171;28;20032;-84
2021/01/04 12:00:55;;;;;;;22.13;9.25;;;9.00;54.80;;;;;;6272781;28;20032;-86
2021/01/04 12:03:56;;;;;;;25.27;10.18;;;9.10;54.70;;;;;;6284528;28;20058;-84
2021/01/04 12:06:57;;;;;;;10.40;5.53;;;9.10;54.70;;;;;;6272672;28;20040;-88
2021/01/04 12:10:21;;;;;;;;;;;;;;;;;;;;;
2021/01/04 12:13:28;;;;;;;17.58;5.55;;;9.20;54.30;;;;;;6292539;28;20036;-86
2021/01/04 12:16:33;;;;;;;13.23;6.63;;;9.30;54.10;;;;;;6278884;28;20047;-86
2021/01/04 12:19:35;;;;;;;13.20;6.25;;;9.20;53.90;;;;;;6292231;28;20044;-87
2021/01/04 12:26:22;;;;;;;12.73;6.30;;;9.50;53.60;;;;;;6166211;28;20042;-86
2021/01/04 12:29:32;;;;;;;11.23;5.05;;;9.50;53.30;;;;;;6166522;28;20421;-86
2021/01/04 12:32:46;;;;;;;11.63;6.32;;;9.50;53.10;;;;;;6162640;28;20038;-83
2021/01/04 12:35:48;;;;;;;12.60;5.30;;;9.60;53.10;;;;;;6167473;28;20040;-83
2021/01/04 12:38:50;;;;;;;10.82;5.53;;;9.60;53.10;;;;;;6166800;28;20042;-82
2021/01/04 12:41:51;;;;;;;10.75;5.15;;;9.60;52.80;;;;;;6183689;28;20038;-83
2021/01/04 12:44:52;;;;;;;14.63;5.05;;;9.60;52.70;;;;;;6181411;28;20061;-84
2021/01/04 12:47:53;;;;;;;11.38;5.40;;;9.70;52.70;;;;;;6194946;28;20054;-84
2021/01/04 12:50:54;;;;;;;13.75;6.57;;;9.70;52.50;;;;;;6183448;28;20034;-83
2021/01/04 12:53:55;;;;;;;10.65;5.13;;;9.70;52.60;;;;;;6185031;28;20622;-83
2021/01/04 12:57:01;;;;;;;9.68;4.43;;;9.70;52.10;;;;;;6158842;28;20042;-83
2021/01/04 13:00:06;;;;;;;9.90;5.28;;;9.70;51.80;;;;;;6163219;28;20048;-82
2021/01/04 13:03:11;;;;;;;11.63;5.43;;;9.80;51.90;;;;;;6257134;28;20479;-83
2021/01/04 13:10:14;;;;;;;8.65;4.72;;;9.80;51.80;;;;;;6166489;28;20034;-83
2021/01/04 13:13:16;;;;;;;8.70;4.47;;;9.80;51.30;;;;;;6159875;28;20038;-83
2021/01/04 13:16:18;;;;;;;10.15;4.90;;;9.80;51.20;;;;;;6195691;28;20065;-82
2021/01/04 13:19:45;;;;;;;14.27;4.65;;;9.80;51.10;;;;;;6194925;28;20038;-84
2021/01/04 13:22:48;;;;;;;12.55;5.18;;;9.80;51.00;;;;;;6196592;28;20061;-82
2021/01/04 13:25:50;;;;;;;10.95;5.43;;;9.80;50.90;;;;;;6172396;28;20132;-83
2021/01/04 13:28:51;;;;;;;10.23;4.65;;;9.80;50.70;;;;;;6190522;28;20034;-84
2021/01/04 13:32:02;;;;;;;11.43;4.85;;;9.80;50.60;;;;;;6155722;28;20069;-83
2021/01/04 13:35:03;;;;;;;9.00;4.32;;;9.80;50.50;;;;;;6183152;28;20070;-82
2021/01/04 13:38:05;;;;;;;8.73;4.55;;;9.70;50.40;;;;;;6200519;28;20035;-83
2021/01/04 13:41:06;;;;;;;8.80;4.47;;;9.60;50.30;;;;;;6184229;28;20046;-82
2021/01/04 13:44:07;;;;;;;12.38;5.15;;;9.50;50.60;;;;;;6184400;28;20138;-83
2021/01/04 13:47:17;;;;;;;11.07;5.15;;;9.50;50.60;;;;;;6200966;28;20486;-82
2021/01/04 13:50:19;;;;;;;10.85;4.93;;;9.60;50.70;;;;;;6199837;28;20031;-82
2021/01/04 13:53:20;;;;;;;10.02;4.70;;;9.60;50.50;;;;;;6198849;28;20129;-83
2021/01/04 13:56:21;;;;;;;12.45;5.28;;;9.40;50.20;;;;;;6165396;28;20051;-82
2021/01/04 13:59:23;;;;;;;11.43;5.45;;;9.50;50.00;;;;;;6214376;28;20460;-82
2021/01/04 14:02:24;;;;;;;11.73;5.05;;;9.50;50.30;;;;;;6300586;28;20047;-82
2021/01/04 14:05:57;;;;;;;9.30;4.75;;;9.40;50.40;;;;;;6291212;28;20029;-83
2021/01/04 14:09:23;;;;;;;9.70;4.55;;;9.40;50.70;;;;;;6239141;28;21633;-84
2021/01/04 14:12:24;;;;;;;10.73;4.80;;;9.40;50.60;;;;;;6289231;28;20068;-84
2021/01/04 14:15:28;;;;;;;12.02;4.95;;;9.30;50.70;;;;;;6252392;28;20040;-83
2021/01/04 14:18:29;;;;;;;11.82;6.88;;;9.30;50.70;;;;;;6306408;28;20036;-83
2021/01/04 14:21:31;;;;;;;11.50;5.22;;;9.20;50.80;;;;;;6279613;28;20028;-81
2021/01/04 14:24:35;;;;;;;11.18;4.53;;;9.30;51.00;;;;;;6261052;28;20426;-83
2021/01/04 14:27:37;;;;;;;8.75;4.20;;;9.20;50.90;;;;;;6287180;28;20108;-83
2021/01/04 14:30:38;;;;;;;8.18;4.38;;;9.20;50.90;;;;;;6315983;28;20028;-83
2021/01/04 14:33:40;;;;;;;11.55;4.63;;;9.20;50.90;;;;;;6312621;28;20055;-81
2021/01/04 14:36:42;;;;;;;10.57;3.92;;;9.20;51.00;;;;;;6342439;28;20046;-82
2021/01/04 14:39:43;;;;;;;10.20;5.30;;;9.10;50.80;;;;;;6347498;28;20035;-82
2021/01/04 14:42:45;;;;;;;9.77;5.43;;;9.10;51.40;;;;;;6344399;28;20032;-83
2021/01/04 14:45:46;;;;;;;13.50;5.22;;;9.10;50.90;;;;;;6334238;28;20054;-82
2021/01/04 14:48:48;;;;;;;12.55;6.30;;;9.10;50.90;;;;;;6313152;28;20028;-81
2021/01/04 14:51:50;;;;;;;20.60;8.18;;;9.10;51.10;;;;;;6331906;28;20044;-84
2021/01/04 14:54:52;;;;;;;21.98;9.27;;;9.00;51.70;;;;;;6333981;28;20044;-83
2021/01/04 14:57:54;;;;;;;20.25;8.25;;;8.90;52.30;;;;;;6324288;28;20032;-83
2021/01/04 15:01:16;;;;;;;18.33;7.60;;;8.80;52.80;;;;;;6279836;28;20156;-86
2021/01/04 15:04:19;;;;;;;21.77;10.38;;;8.70;53.30;;;;;;6237773;28;20044;-82
2021/01/04 15:07:58;;;;;;;23.13;9.18;;;8.60;53.50;;;;;;6295960;28;20089;-84
2021/01/04 15:11:24;;;;;;;18.65;8.35;;;8.60;53.90;;;;;;6247145;28;20482;-84
2021/01/04 15:14:46;;;;;;;22.73;9.40;;;8.50;54.10;;;;;;6298748;28;20059;-84
2021/01/04 15:18:53;;;;;;;;;;;;;;;;;;;;;
2021/01/04 15:22:04;;;;;;;23.63;9.68;;;8.40;54.90;;;;;;6185697;28;20481;-84
2021/01/04 15:29:02;;;;;;;24.25;10.05;;;8.20;55.40;;;;;;5974102;29;20394;-84
2021/01/04 15:32:06;;;;;;;22.80;9.65;;;8.10;56.10;;;;;;5959456;29;20050;-83
2021/01/04 15:35:10;;;;;;;21.35;8.40;;;8.10;55.60;;;;;;6032095;29;20180;-83
2021/01/04 15:38:11;;;;;;;24.17;10.15;;;8.00;55.80;;;;;;6043809;29;20044;-83
2021/01/04 15:41:40;;;;;;;22.10;10.15;;;8.00;55.80;;;;;;6043328;29;20037;-85
2021/01/04 15:45:40;;;;;;;20.58;8.40;;;8.00;56.00;;;;;;5963887;29;20041;-84
2021/01/04 15:49:37;;;;;;;26.58;9.98;;;8.10;56.10;;;;;;5914577;29;20187;-83
2021/01/04 15:57:40;;;;;;;;;;;;;;;;;;;;;
2021/01/04 16:01:26;;;;;;;17.02;8.32;;;7.70;56.50;;;;;;5863139;30;20036;-83
2021/01/04 16:05:59;;;;;;;27.60;9.60;;;7.70;56.70;;;;;;5860594;30;20136;-83
2021/01/04 16:13:32;;;;;;;;;;;7.60;57.00;;;;;;5901858;29;20491;-82
2021/01/04 16:16:34;;;;;;;23.55;8.15;;;7.50;57.20;;;;;;5921764;29;19986;-84
2021/01/04 16:19:35;;;;;;;22.67;9.02;;;7.50;57.20;;;;;;5887440;29;20053;-82
2021/01/04 16:22:37;;;;;;;30.05;10.48;;;7.40;57.50;;;;;;5931551;29;20044;-79
2021/01/04 16:25:38;;;;;;;23.63;10.43;;;7.40;57.80;;;;;;5970676;29;20113;-80
2021/01/04 16:28:38;;;;;;;27.48;10.13;;;7.40;57.90;;;;;;5954300;29;20306;-79
2021/01/04 16:32:11;;;;;;;21.95;8.70;;;7.40;58.40;;;;;;6038895;29;20133;-80
2021/01/04 16:35:13;;;;;;;23.92;9.05;;;7.40;57.80;;;;;;6071104;29;20063;-80
2021/01/04 16:38:14;;;;;;;25.45;10.25;;;7.40;57.80;;;;;;6118047;29;20043;-80
2021/01/04 16:41:22;;;;;;;21.67;8.65;;;7.40;57.80;;;;;;6126255;28;20062;-81
2021/01/04 16:44:24;;;;;;;25.13;9.68;;;7.40;57.80;;;;;;6186667;28;20032;-79
2021/01/04 16:47:25;;;;;;;20.73;8.18;;;7.40;57.80;;;;;;6269071;28;20120;-78
2021/01/04 16:50:26;;;;;;;25.02;9.55;;;7.40;57.80;;;;;;6246388;28;20037;-77
2021/01/04 16:53:44;;;;;;;25.20;9.88;;;7.40;57.80;;;;;;6267549;28;20044;-77
2021/01/04 16:56:51;;;;;;;27.48;9.02;;;7.40;57.70;;;;;;6238432;28;20337;-78
2021/01/04 16:59:54;;;;;;;27.08;10.38;;;7.40;57.80;;;;;;6233535;28;20056;-77
2021/01/04 17:02:59;;;;;;;25.90;10.15;;;7.40;57.70;;;;;;6281730;28;20036;-78
2021/01/04 17:06:00;;;;;;;26.33;9.80;;;7.40;57.90;;;;;;6279360;28;20348;-79